sensor_id;sensor_type;location;lat;lon;timestamp;P1;durP1;ratioP1;P2;durP2;ratioP2
1276;SDS011;631;51.024;13.826;2024-02-16T00:00:22;19.93;;;18.00;;
1276;SDS011;631;51.024;13.826;2024-02-16T00:02:49;19.63;;;18.00;;
1276;SDS011;631;51.024;13.826;2024-02-16T00:05:14;18.93;;;17.17;;
1276;SDS011;631;51.024;13.826;2024-02-16T00:07:40;18.00;;;16.50;;
1276;SDS011;631;51.024;13.826;2024-02-16T00:10:06;17.80;;;16.30;;
1276;SDS011;631;51.024;13.826;2024-02-16T00:12:33;19.17;;;17.27;;
1276;SDS011;631;51.024;13.826;2024-02-16T00:15:00;18.83;;;17.23;;
1276;SDS011;631;51.024;13.826;2024-02-16T00:17:26;19.70;;;17.93;;
1276;SDS011;631;51.024;13.826;2024-02-16T00:19:55;19.73;;;17.93;;
1276;SDS011;631;51.024;13.826;2024-02-16T00:22:22;19.10;;;17.23;;
1276;SDS011;631;51.024;13.826;2024-02-16T00:24:47;19.87;;;17.83;;
1276;SDS011;631;51.024;13.826;2024-02-16T00:27:13;18.40;;;16.80;;
1276;SDS011;631;51.024;13.826;2024-02-16T00:29:40;18.33;;;16.67;;
1276;SDS011;631;51.024;13.826;2024-02-16T00:32:06;19.50;;;17.80;;
1276;SDS011;631;51.024;13.826;2024-02-16T00:34:32;19.07;;;17.47;;
1276;SDS011;631;51.024;13.826;2024-02-16T00:36:59;19.27;;;17.57;;
1276;SDS011;631;51.024;13.826;2024-02-16T00:39:25;19.80;;;18.00;;
1276;SDS011;631;51.024;13.826;2024-02-16T00:41:51;19.43;;;17.60;;
1276;SDS011;631;51.024;13.826;2024-02-16T00:44:17;19.53;;;17.73;;
1276;SDS011;631;51.024;13.826;2024-02-16T00:46:43;19.13;;;17.53;;
1276;SDS011;631;51.024;13.826;2024-02-16T00:49:09;19.47;;;17.83;;
1276;SDS011;631;51.024;13.826;2024-02-16T00:51:35;19.20;;;17.40;;
1276;SDS011;631;51.024;13.826;2024-02-16T00:54:02;19.43;;;17.73;;
1276;SDS011;631;51.024;13.826;2024-02-16T00:56:28;19.50;;;17.80;;
1276;SDS011;631;51.024;13.826;2024-02-16T00:58:54;20.20;;;18.50;;
1276;SDS011;631;51.024;13.826;2024-02-16T01:01:20;18.90;;;17.27;;
1276;SDS011;631;51.024;13.826;2024-02-16T01:03:47;19.93;;;18.17;;
1276;SDS011;631;51.024;13.826;2024-02-16T01:06:13;19.97;;;18.07;;
1276;SDS011;631;51.024;13.826;2024-02-16T01:08:40;20.50;;;18.40;;
1276;SDS011;631;51.024;13.826;2024-02-16T01:11:06;21.67;;;19.57;;
1276;SDS011;631;51.024;13.826;2024-02-16T01:13:32;21.80;;;19.70;;
1276;SDS011;631;51.024;13.826;2024-02-16T01:15:58;21.50;;;19.40;;
1276;SDS011;631;51.024;13.826;2024-02-16T01:18:24;21.10;;;19.17;;
1276;SDS011;631;51.024;13.826;2024-02-16T01:20:51;21.20;;;19.40;;
1276;SDS011;631;51.024;13.826;2024-02-16T01:23:16;22.47;;;19.47;;
1276;SDS011;631;51.024;13.826;2024-02-16T01:25:42;22.60;;;20.30;;
1276;SDS011;631;51.024;13.826;2024-02-16T01:28:08;21.53;;;19.33;;
1276;SDS011;631;51.024;13.826;2024-02-16T01:30:33;21.60;;;19.40;;
1276;SDS011;631;51.024;13.826;2024-02-16T01:32:59;22.40;;;20.20;;
1276;SDS011;631;51.024;13.826;2024-02-16T01:35:24;22.10;;;20.10;;
1276;SDS011;631;51.024;13.826;2024-02-16T01:37:50;22.30;;;20.20;;
1276;SDS011;631;51.024;13.826;2024-02-16T01:40:16;22.40;;;20.40;;
1276;SDS011;631;51.024;13.826;2024-02-16T01:42:46;23.07;;;20.90;;
1276;SDS011;631;51.024;13.826;2024-02-16T01:45:13;22.10;;;20.00;;
1276;SDS011;631;51.024;13.826;2024-02-16T01:47:38;23.03;;;20.83;;
1276;SDS011;631;51.024;13.826;2024-02-16T01:50:06;22.30;;;20.17;;
1276;SDS011;631;51.024;13.826;2024-02-16T01:52:33;22.63;;;20.53;;
1276;SDS011;631;51.024;13.826;2024-02-16T01:55:01;23.23;;;21.23;;
1276;SDS011;631;51.024;13.826;2024-02-16T01:57:34;21.83;;;19.90;;
1276;SDS011;631;51.024;13.826;2024-02-16T02:00:00;24.47;;;22.10;;
1276;SDS011;631;51.024;13.826;2024-02-16T02:02:26;23.17;;;20.87;;
1276;SDS011;631;51.024;13.826;2024-02-16T02:04:52;22.80;;;20.70;;
1276;SDS011;631;51.024;13.826;2024-02-16T02:07:18;23.77;;;21.40;;
1276;SDS011;631;51.024;13.826;2024-02-16T02:09:44;24.20;;;22.00;;
1276;SDS011;631;51.024;13.826;2024-02-16T02:12:09;24.57;;;22.27;;
1276;SDS011;631;51.024;13.826;2024-02-16T02:14:35;23.50;;;21.30;;
1276;SDS011;631;51.024;13.826;2024-02-16T02:17:02;22.87;;;20.80;;
1276;SDS011;631;51.024;13.826;2024-02-16T02:19:28;23.30;;;21.07;;
1276;SDS011;631;51.024;13.826;2024-02-16T02:21:54;23.30;;;21.03;;
1276;SDS011;631;51.024;13.826;2024-02-16T02:24:20;23.77;;;21.47;;
1276;SDS011;631;51.024;13.826;2024-02-16T02:26:46;23.67;;;21.50;;
1276;SDS011;631;51.024;13.826;2024-02-16T02:29:12;25.03;;;22.60;;
1276;SDS011;631;51.024;13.826;2024-02-16T02:31:37;23.47;;;21.17;;
1276;SDS011;631;51.024;13.826;2024-02-16T02:34:03;22.53;;;20.33;;
1276;SDS011;631;51.024;13.826;2024-02-16T02:36:30;22.73;;;20.63;;
1276;SDS011;631;51.024;13.826;2024-02-16T02:38:57;23.70;;;21.47;;
1276;SDS011;631;51.024;13.826;2024-02-16T02:41:23;23.13;;;20.97;;
1276;SDS011;631;51.024;13.826;2024-02-16T02:43:49;24.77;;;22.33;;
1276;SDS011;631;51.024;13.826;2024-02-16T02:46:15;22.43;;;20.53;;
1276;SDS011;631;51.024;13.826;2024-02-16T02:48:42;24.83;;;22.40;;
1276;SDS011;631;51.024;13.826;2024-02-16T02:51:09;24.07;;;21.77;;
1276;SDS011;631;51.024;13.826;2024-02-16T02:53:34;24.13;;;21.60;;
1276;SDS011;631;51.024;13.826;2024-02-16T02:56:01;24.40;;;21.90;;
1276;SDS011;631;51.024;13.826;2024-02-16T02:58:27;24.03;;;21.23;;
1276;SDS011;631;51.024;13.826;2024-02-16T03:00:53;25.33;;;22.60;;
1276;SDS011;631;51.024;13.826;2024-02-16T03:03:19;24.90;;;22.27;;
1276;SDS011;631;51.024;13.826;2024-02-16T03:05:45;23.47;;;21.17;;
1276;SDS011;631;51.024;13.826;2024-02-16T03:08:11;22.67;;;20.57;;
1276;SDS011;631;51.024;13.826;2024-02-16T03:10:37;24.57;;;21.50;;
1276;SDS011;631;51.024;13.826;2024-02-16T03:13:02;24.90;;;22.20;;
1276;SDS011;631;51.024;13.826;2024-02-16T03:15:28;23.00;;;20.60;;
1276;SDS011;631;51.024;13.826;2024-02-16T03:17:54;24.43;;;22.03;;
1276;SDS011;631;51.024;13.826;2024-02-16T03:20:20;24.83;;;22.30;;
1276;SDS011;631;51.024;13.826;2024-02-16T03:22:46;24.10;;;21.70;;
1276;SDS011;631;51.024;13.826;2024-02-16T03:25:13;26.80;;;22.50;;
1276;SDS011;631;51.024;13.826;2024-02-16T03:27:39;24.30;;;21.97;;
1276;SDS011;631;51.024;13.826;2024-02-16T03:30:06;24.87;;;22.37;;
1276;SDS011;631;51.024;13.826;2024-02-16T03:32:33;23.13;;;20.80;;
1276;SDS011;631;51.024;13.826;2024-02-16T03:34:59;23.40;;;21.20;;
1276;SDS011;631;51.024;13.826;2024-02-16T03:37:25;24.23;;;21.93;;
1276;SDS011;631;51.024;13.826;2024-02-16T03:39:50;24.90;;;22.50;;
1276;SDS011;631;51.024;13.826;2024-02-16T03:42:16;25.23;;;22.80;;
1276;SDS011;631;51.024;13.826;2024-02-16T03:44:45;25.20;;;22.70;;
1276;SDS011;631;51.024;13.826;2024-02-16T03:47:11;23.83;;;21.50;;
1276;SDS011;631;51.024;13.826;2024-02-16T03:49:37;25.33;;;22.50;;
1276;SDS011;631;51.024;13.826;2024-02-16T03:52:04;25.93;;;23.43;;
1276;SDS011;631;51.024;13.826;2024-02-16T03:54:29;24.47;;;22.07;;
1276;SDS011;631;51.024;13.826;2024-02-16T03:56:56;24.20;;;21.80;;
1276;SDS011;631;51.024;13.826;2024-02-16T03:59:21;24.37;;;22.00;;
1276;SDS011;631;51.024;13.826;2024-02-16T04:01:48;24.93;;;22.43;;
1276;SDS011;631;51.024;13.826;2024-02-16T04:04:14;24.63;;;22.20;;
1276;SDS011;631;51.024;13.826;2024-02-16T04:06:40;24.17;;;21.80;;
1276;SDS011;631;51.024;13.826;2024-02-16T04:09:06;24.47;;;22.07;;
1276;SDS011;631;51.024;13.826;2024-02-16T04:11:32;26.17;;;23.60;;
1276;SDS011;631;51.024;13.826;2024-02-16T04:13:57;25.00;;;22.40;;
1276;SDS011;631;51.024;13.826;2024-02-16T04:16:23;27.00;;;23.40;;
1276;SDS011;631;51.024;13.826;2024-02-16T04:18:50;25.80;;;23.30;;
1276;SDS011;631;51.024;13.826;2024-02-16T04:21:16;23.90;;;21.63;;
1276;SDS011;631;51.024;13.826;2024-02-16T04:23:42;23.77;;;21.47;;
1276;SDS011;631;51.024;13.826;2024-02-16T04:26:07;26.50;;;23.70;;
1276;SDS011;631;51.024;13.826;2024-02-16T04:28:34;25.33;;;22.83;;
1276;SDS011;631;51.024;13.826;2024-02-16T04:31:00;23.27;;;21.13;;
1276;SDS011;631;51.024;13.826;2024-02-16T04:33:25;25.50;;;22.80;;
1276;SDS011;631;51.024;13.826;2024-02-16T04:35:51;26.27;;;22.47;;
1276;SDS011;631;51.024;13.826;2024-02-16T04:38:17;25.90;;;23.17;;
1276;SDS011;631;51.024;13.826;2024-02-16T04:40:43;25.03;;;22.47;;
1276;SDS011;631;51.024;13.826;2024-02-16T04:43:09;25.03;;;22.57;;
1276;SDS011;631;51.024;13.826;2024-02-16T04:45:35;24.03;;;21.70;;
1276;SDS011;631;51.024;13.826;2024-02-16T04:48:04;26.90;;;23.13;;
1276;SDS011;631;51.024;13.826;2024-02-16T04:50:33;24.87;;;22.33;;
1276;SDS011;631;51.024;13.826;2024-02-16T04:52:59;23.87;;;21.47;;
1276;SDS011;631;51.024;13.826;2024-02-16T04:55:28;25.47;;;22.87;;
1276;SDS011;631;51.024;13.826;2024-02-16T04:57:55;26.57;;;22.60;;
1276;SDS011;631;51.024;13.826;2024-02-16T05:00:20;24.40;;;21.83;;
1276;SDS011;631;51.024;13.826;2024-02-16T05:02:46;24.00;;;21.60;;
1276;SDS011;631;51.024;13.826;2024-02-16T05:05:12;23.53;;;21.13;;
1276;SDS011;631;51.024;13.826;2024-02-16T05:07:37;24.63;;;22.17;;
1276;SDS011;631;51.024;13.826;2024-02-16T05:10:07;25.20;;;22.50;;
1276;SDS011;631;51.024;13.826;2024-02-16T05:12:33;25.23;;;22.50;;
1276;SDS011;631;51.024;13.826;2024-02-16T05:14:59;24.77;;;22.27;;
1276;SDS011;631;51.024;13.826;2024-02-16T05:17:25;25.10;;;22.57;;
1276;SDS011;631;51.024;13.826;2024-02-16T05:19:51;27.63;;;22.43;;
1276;SDS011;631;51.024;13.826;2024-02-16T05:22:18;24.07;;;21.63;;
1276;SDS011;631;51.024;13.826;2024-02-16T05:24:44;25.50;;;22.33;;
1276;SDS011;631;51.024;13.826;2024-02-16T05:27:10;25.27;;;22.40;;
1276;SDS011;631;51.024;13.826;2024-02-16T05:29:36;24.93;;;22.20;;
1276;SDS011;631;51.024;13.826;2024-02-16T05:32:01;25.03;;;22.50;;
1276;SDS011;631;51.024;13.826;2024-02-16T05:34:27;25.70;;;23.07;;
1276;SDS011;631;51.024;13.826;2024-02-16T05:36:57;26.77;;;23.93;;
1276;SDS011;631;51.024;13.826;2024-02-16T05:39:23;24.10;;;21.60;;
1276;SDS011;631;51.024;13.826;2024-02-16T05:41:52;25.27;;;22.87;;
1276;SDS011;631;51.024;13.826;2024-02-16T05:44:18;25.43;;;22.73;;
1276;SDS011;631;51.024;13.826;2024-02-16T05:46:45;24.43;;;21.90;;
1276;SDS011;631;51.024;13.826;2024-02-16T05:49:11;30.77;;;23.40;;
1276;SDS011;631;51.024;13.826;2024-02-16T05:51:37;25.00;;;22.40;;
1276;SDS011;631;51.024;13.826;2024-02-16T05:54:07;23.63;;;21.10;;
1276;SDS011;631;51.024;13.826;2024-02-16T05:56:36;24.13;;;21.73;;
1276;SDS011;631;51.024;13.826;2024-02-16T05:59:04;23.90;;;21.50;;
1276;SDS011;631;51.024;13.826;2024-02-16T06:01:30;26.00;;;23.20;;
1276;SDS011;631;51.024;13.826;2024-02-16T06:03:56;25.00;;;21.93;;
1276;SDS011;631;51.024;13.826;2024-02-16T06:06:21;24.13;;;21.60;;
1276;SDS011;631;51.024;13.826;2024-02-16T06:08:47;24.80;;;22.20;;
1276;SDS011;631;51.024;13.826;2024-02-16T06:11:13;25.47;;;22.77;;
1276;SDS011;631;51.024;13.826;2024-02-16T06:13:40;24.70;;;22.00;;
1276;SDS011;631;51.024;13.826;2024-02-16T06:16:05;24.97;;;22.37;;
1276;SDS011;631;51.024;13.826;2024-02-16T06:18:35;24.90;;;22.30;;
1276;SDS011;631;51.024;13.826;2024-02-16T06:21:01;27.53;;;22.90;;
1276;SDS011;631;51.024;13.826;2024-02-16T06:23:27;24.70;;;22.20;;
1276;SDS011;631;51.024;13.826;2024-02-16T06:25:52;23.90;;;21.30;;
1276;SDS011;631;51.024;13.826;2024-02-16T06:28:18;26.27;;;23.53;;
1276;SDS011;631;51.024;13.826;2024-02-16T06:30:43;26.50;;;23.70;;
1276;SDS011;631;51.024;13.826;2024-02-16T06:33:09;26.73;;;22.17;;
1276;SDS011;631;51.024;13.826;2024-02-16T06:35:35;26.20;;;23.27;;
1276;SDS011;631;51.024;13.826;2024-02-16T06:38:00;26.67;;;22.50;;
1276;SDS011;631;51.024;13.826;2024-02-16T06:40:26;23.90;;;21.33;;
1276;SDS011;631;51.024;13.826;2024-02-16T06:42:52;24.33;;;21.80;;
1276;SDS011;631;51.024;13.826;2024-02-16T06:45:18;26.97;;;23.90;;
1276;SDS011;631;51.024;13.826;2024-02-16T06:47:43;25.97;;;23.23;;
1276;SDS011;631;51.024;13.826;2024-02-16T06:50:10;26.17;;;23.37;;
1276;SDS011;631;51.024;13.826;2024-02-16T06:52:35;28.30;;;24.07;;
1276;SDS011;631;51.024;13.826;2024-02-16T06:55:01;25.60;;;22.57;;
1276;SDS011;631;51.024;13.826;2024-02-16T06:57:26;24.83;;;22.07;;
1276;SDS011;631;51.024;13.826;2024-02-16T06:59:52;28.10;;;22.73;;
1276;SDS011;631;51.024;13.826;2024-02-16T07:02:18;27.60;;;24.73;;
1276;SDS011;631;51.024;13.826;2024-02-16T07:04:44;26.00;;;23.20;;
1276;SDS011;631;51.024;13.826;2024-02-16T07:07:10;25.47;;;22.70;;
1276;SDS011;631;51.024;13.826;2024-02-16T07:09:36;31.33;;;24.60;;
1276;SDS011;631;51.024;13.826;2024-02-16T07:12:04;24.67;;;22.00;;
1276;SDS011;631;51.024;13.826;2024-02-16T07:14:31;25.27;;;22.53;;
1276;SDS011;631;51.024;13.826;2024-02-16T07:16:57;29.80;;;24.20;;
1276;SDS011;631;51.024;13.826;2024-02-16T07:19:23;29.60;;;24.13;;
1276;SDS011;631;51.024;13.826;2024-02-16T07:21:49;26.17;;;23.37;;
1276;SDS011;631;51.024;13.826;2024-02-16T07:24:15;28.10;;;23.27;;
1276;SDS011;631;51.024;13.826;2024-02-16T07:26:41;28.83;;;24.30;;
1276;SDS011;631;51.024;13.826;2024-02-16T07:29:07;25.10;;;22.37;;
1276;SDS011;631;51.024;13.826;2024-02-16T07:31:33;28.30;;;24.70;;
1276;SDS011;631;51.024;13.826;2024-02-16T07:33:59;25.90;;;23.17;;
1276;SDS011;631;51.024;13.826;2024-02-16T07:36:25;26.33;;;23.53;;
1276;SDS011;631;51.024;13.826;2024-02-16T07:38:51;28.37;;;23.10;;
1276;SDS011;631;51.024;13.826;2024-02-16T07:41:16;29.10;;;23.60;;
1276;SDS011;631;51.024;13.826;2024-02-16T07:43:42;25.07;;;22.33;;
1276;SDS011;631;51.024;13.826;2024-02-16T07:46:08;25.17;;;22.67;;
1276;SDS011;631;51.024;13.826;2024-02-16T07:48:33;25.20;;;22.47;;
1276;SDS011;631;51.024;13.826;2024-02-16T07:51:00;27.20;;;24.47;;
1276;SDS011;631;51.024;13.826;2024-02-16T07:53:27;26.13;;;23.20;;
1276;SDS011;631;51.024;13.826;2024-02-16T07:55:54;26.90;;;23.87;;
1276;SDS011;631;51.024;13.826;2024-02-16T07:58:19;25.43;;;22.83;;
1276;SDS011;631;51.024;13.826;2024-02-16T08:00:45;25.33;;;22.70;;
1276;SDS011;631;51.024;13.826;2024-02-16T08:03:10;26.50;;;23.20;;
1276;SDS011;631;51.024;13.826;2024-02-16T08:05:36;27.30;;;24.33;;
1276;SDS011;631;51.024;13.826;2024-02-16T08:08:02;23.47;;;21.17;;
1276;SDS011;631;51.024;13.826;2024-02-16T08:10:28;25.67;;;23.23;;
1276;SDS011;631;51.024;13.826;2024-02-16T08:12:54;25.57;;;23.03;;
1276;SDS011;631;51.024;13.826;2024-02-16T08:15:19;25.90;;;23.30;;
1276;SDS011;631;51.024;13.826;2024-02-16T08:17:48;26.20;;;23.70;;
1276;SDS011;631;51.024;13.826;2024-02-16T08:20:15;24.43;;;22.07;;
1276;SDS011;631;51.024;13.826;2024-02-16T08:22:40;24.67;;;22.07;;
1276;SDS011;631;51.024;13.826;2024-02-16T08:25:06;23.53;;;21.13;;
1276;SDS011;631;51.024;13.826;2024-02-16T08:27:32;24.00;;;21.63;;
1276;SDS011;631;51.024;13.826;2024-02-16T08:29:58;24.90;;;22.53;;
1276;SDS011;631;51.024;13.826;2024-02-16T08:32:24;22.90;;;20.50;;
1276;SDS011;631;51.024;13.826;2024-02-16T08:34:49;24.13;;;21.87;;
1276;SDS011;631;51.024;13.826;2024-02-16T08:37:17;25.90;;;23.20;;
1276;SDS011;631;51.024;13.826;2024-02-16T08:39:43;25.00;;;22.37;;
1276;SDS011;631;51.024;13.826;2024-02-16T08:42:08;24.30;;;21.83;;
1276;SDS011;631;51.024;13.826;2024-02-16T08:44:36;25.67;;;23.13;;
1276;SDS011;631;51.024;13.826;2024-02-16T08:47:03;26.10;;;23.33;;
1276;SDS011;631;51.024;13.826;2024-02-16T08:49:29;24.77;;;22.27;;
1276;SDS011;631;51.024;13.826;2024-02-16T08:51:55;27.17;;;24.37;;
1276;SDS011;631;51.024;13.826;2024-02-16T08:54:21;26.77;;;23.90;;
1276;SDS011;631;51.024;13.826;2024-02-16T08:56:47;25.53;;;23.07;;
1276;SDS011;631;51.024;13.826;2024-02-16T08:59:13;26.80;;;24.10;;
1276;SDS011;631;51.024;13.826;2024-02-16T09:01:39;25.07;;;22.33;;
1276;SDS011;631;51.024;13.826;2024-02-16T09:04:05;24.93;;;22.47;;
1276;SDS011;631;51.024;13.826;2024-02-16T09:06:30;25.10;;;22.63;;
1276;SDS011;631;51.024;13.826;2024-02-16T09:08:56;25.70;;;23.27;;
1276;SDS011;631;51.024;13.826;2024-02-16T09:11:22;24.73;;;21.67;;
1276;SDS011;631;51.024;13.826;2024-02-16T09:13:48;24.57;;;22.07;;
1276;SDS011;631;51.024;13.826;2024-02-16T09:16:14;25.27;;;22.77;;
1276;SDS011;631;51.024;13.826;2024-02-16T09:18:40;25.20;;;22.60;;
1276;SDS011;631;51.024;13.826;2024-02-16T09:21:06;25.07;;;22.67;;
1276;SDS011;631;51.024;13.826;2024-02-16T09:23:32;26.30;;;23.80;;
1276;SDS011;631;51.024;13.826;2024-02-16T09:25:59;23.20;;;21.07;;
1276;SDS011;631;51.024;13.826;2024-02-16T09:28:28;25.10;;;22.60;;
1276;SDS011;631;51.024;13.826;2024-02-16T09:30:54;27.23;;;24.63;;
1276;SDS011;631;51.024;13.826;2024-02-16T09:33:20;25.63;;;23.30;;
1276;SDS011;631;51.024;13.826;2024-02-16T09:35:47;24.40;;;22.10;;
1276;SDS011;631;51.024;13.826;2024-02-16T09:38:15;24.93;;;22.77;;
1276;SDS011;631;51.024;13.826;2024-02-16T09:40:42;25.27;;;22.87;;
1276;SDS011;631;51.024;13.826;2024-02-16T09:43:08;23.80;;;21.53;;
1276;SDS011;631;51.024;13.826;2024-02-16T09:45:33;26.33;;;23.73;;
1276;SDS011;631;51.024;13.826;2024-02-16T09:47:59;25.67;;;23.20;;
1276;SDS011;631;51.024;13.826;2024-02-16T09:50:26;24.67;;;22.47;;
1276;SDS011;631;51.024;13.826;2024-02-16T09:52:52;26.03;;;23.63;;
1276;SDS011;631;51.024;13.826;2024-02-16T09:55:19;25.60;;;23.20;;
1276;SDS011;631;51.024;13.826;2024-02-16T09:57:45;26.77;;;24.33;;
1276;SDS011;631;51.024;13.826;2024-02-16T10:00:12;24.87;;;22.37;;
1276;SDS011;631;51.024;13.826;2024-02-16T10:05:13;22.53;;;20.33;;
1276;SDS011;631;51.024;13.826;2024-02-16T10:07:43;25.07;;;22.60;;
1276;SDS011;631;51.024;13.826;2024-02-16T10:10:25;25.40;;;23.10;;
1276;SDS011;631;51.024;13.826;2024-02-16T10:15:31;25.60;;;23.20;;
1276;SDS011;631;51.024;13.826;2024-02-16T10:20:27;26.00;;;23.60;;
1276;SDS011;631;51.024;13.826;2024-02-16T10:25:32;25.43;;;23.13;;
1276;SDS011;631;51.024;13.826;2024-02-16T10:27:59;26.17;;;23.60;;
1276;SDS011;631;51.024;13.826;2024-02-16T10:30:29;25.10;;;22.73;;
1276;SDS011;631;51.024;13.826;2024-02-16T10:32:58;26.00;;;23.53;;
1276;SDS011;631;51.024;13.826;2024-02-16T10:35:24;25.53;;;23.03;;
1276;SDS011;631;51.024;13.826;2024-02-16T10:37:51;25.20;;;22.90;;
1276;SDS011;631;51.024;13.826;2024-02-16T10:40:19;26.73;;;24.07;;
1276;SDS011;631;51.024;13.826;2024-02-16T10:42:45;25.50;;;23.13;;
1276;SDS011;631;51.024;13.826;2024-02-16T10:45:12;25.57;;;22.70;;
1276;SDS011;631;51.024;13.826;2024-02-16T10:47:38;25.40;;;22.93;;
1276;SDS011;631;51.024;13.826;2024-02-16T10:50:04;25.63;;;23.07;;
1276;SDS011;631;51.024;13.826;2024-02-16T10:52:31;25.60;;;23.10;;
1276;SDS011;631;51.024;13.826;2024-02-16T10:54:57;27.33;;;24.70;;
1276;SDS011;631;51.024;13.826;2024-02-16T10:57:24;26.77;;;24.27;;
1276;SDS011;631;51.024;13.826;2024-02-16T10:59:52;26.33;;;23.80;;
1276;SDS011;631;51.024;13.826;2024-02-16T11:02:19;29.33;;;26.43;;
1276;SDS011;631;51.024;13.826;2024-02-16T11:04:46;28.17;;;25.50;;
1276;SDS011;631;51.024;13.826;2024-02-16T11:07:17;28.27;;;25.57;;
1276;SDS011;631;51.024;13.826;2024-02-16T11:09:43;27.00;;;24.37;;
1276;SDS011;631;51.024;13.826;2024-02-16T11:12:11;27.97;;;25.27;;
1276;SDS011;631;51.024;13.826;2024-02-16T11:14:38;26.27;;;23.97;;
1276;SDS011;631;51.024;13.826;2024-02-16T11:17:20;27.60;;;24.83;;
1276;SDS011;631;51.024;13.826;2024-02-16T11:19:47;27.73;;;25.03;;
1276;SDS011;631;51.024;13.826;2024-02-16T11:22:17;27.00;;;24.63;;
1276;SDS011;631;51.024;13.826;2024-02-16T11:24:45;26.43;;;24.03;;
1276;SDS011;631;51.024;13.826;2024-02-16T11:27:12;26.93;;;24.63;;
1276;SDS011;631;51.024;13.826;2024-02-16T11:29:39;27.10;;;24.80;;
1276;SDS011;631;51.024;13.826;2024-02-16T11:32:06;27.53;;;25.23;;
1276;SDS011;631;51.024;13.826;2024-02-16T11:34:32;27.70;;;25.30;;
1276;SDS011;631;51.024;13.826;2024-02-16T11:36:59;28.40;;;25.93;;
1276;SDS011;631;51.024;13.826;2024-02-16T11:39:30;27.07;;;24.77;;
1276;SDS011;631;51.024;13.826;2024-02-16T11:42:03;27.10;;;24.63;;
1276;SDS011;631;51.024;13.826;2024-02-16T11:44:36;27.87;;;25.10;;
1276;SDS011;631;51.024;13.826;2024-02-16T11:47:04;27.80;;;25.30;;
1276;SDS011;631;51.024;13.826;2024-02-16T11:49:40;27.90;;;25.33;;
1276;SDS011;631;51.024;13.826;2024-02-16T11:52:06;27.03;;;24.63;;
1276;SDS011;631;51.024;13.826;2024-02-16T11:54:32;27.47;;;24.87;;
1276;SDS011;631;51.024;13.826;2024-02-16T11:56:58;26.10;;;23.63;;
1276;SDS011;631;51.024;13.826;2024-02-16T11:59:24;26.70;;;24.30;;
1276;SDS011;631;51.024;13.826;2024-02-16T12:04:30;27.83;;;25.47;;
1276;SDS011;631;51.024;13.826;2024-02-16T12:07:02;68.53;;;52.17;;
1276;SDS011;631;51.024;13.826;2024-02-16T12:09:28;45.43;;;37.77;;
1276;SDS011;631;51.024;13.826;2024-02-16T12:11:56;58.23;;;47.20;;
1276;SDS011;631;51.024;13.826;2024-02-16T12:14:22;29.53;;;26.77;;
1276;SDS011;631;51.024;13.826;2024-02-16T12:16:49;27.37;;;24.67;;
1276;SDS011;631;51.024;13.826;2024-02-16T12:19:16;28.83;;;26.07;;
1276;SDS011;631;51.024;13.826;2024-02-16T12:21:43;27.93;;;25.43;;
1276;SDS011;631;51.024;13.826;2024-02-16T12:24:09;26.20;;;23.80;;
1276;SDS011;631;51.024;13.826;2024-02-16T12:26:36;27.27;;;24.77;;
1276;SDS011;631;51.024;13.826;2024-02-16T12:29:02;25.20;;;22.70;;
1276;SDS011;631;51.024;13.826;2024-02-16T12:31:29;26.40;;;23.90;;
1276;SDS011;631;51.024;13.826;2024-02-16T12:33:55;26.10;;;23.63;;
1276;SDS011;631;51.024;13.826;2024-02-16T12:36:20;24.53;;;22.40;;
1276;SDS011;631;51.024;13.826;2024-02-16T12:38:48;26.20;;;23.70;;
1276;SDS011;631;51.024;13.826;2024-02-16T12:41:14;26.20;;;23.77;;
1276;SDS011;631;51.024;13.826;2024-02-16T12:43:40;24.90;;;22.80;;
1276;SDS011;631;51.024;13.826;2024-02-16T12:46:05;28.07;;;25.53;;
1276;SDS011;631;51.024;13.826;2024-02-16T12:48:31;30.13;;;27.43;;
1276;SDS011;631;51.024;13.826;2024-02-16T12:50:56;25.80;;;23.43;;
1276;SDS011;631;51.024;13.826;2024-02-16T12:53:23;25.70;;;23.60;;
1276;SDS011;631;51.024;13.826;2024-02-16T12:55:50;23.20;;;21.40;;
1276;SDS011;631;51.024;13.826;2024-02-16T12:58:16;22.53;;;20.67;;
1276;SDS011;631;51.024;13.826;2024-02-16T13:00:42;21.97;;;20.20;;
1276;SDS011;631;51.024;13.826;2024-02-16T13:03:07;21.03;;;19.33;;
1276;SDS011;631;51.024;13.826;2024-02-16T13:05:33;21.00;;;19.40;;
1276;SDS011;631;51.024;13.826;2024-02-16T13:07:59;20.67;;;19.17;;
1276;SDS011;631;51.024;13.826;2024-02-16T13:10:25;20.83;;;19.23;;
1276;SDS011;631;51.024;13.826;2024-02-16T13:12:50;21.80;;;20.13;;
1276;SDS011;631;51.024;13.826;2024-02-16T13:15:16;22.57;;;20.87;;
1276;SDS011;631;51.024;13.826;2024-02-16T13:17:41;22.10;;;20.40;;
1276;SDS011;631;51.024;13.826;2024-02-16T13:20:07;23.70;;;21.87;;
1276;SDS011;631;51.024;13.826;2024-02-16T13:22:37;22.80;;;21.10;;
1276;SDS011;631;51.024;13.826;2024-02-16T13:25:03;23.60;;;21.70;;
1276;SDS011;631;51.024;13.826;2024-02-16T13:27:30;24.20;;;22.40;;
1276;SDS011;631;51.024;13.826;2024-02-16T13:29:56;23.43;;;21.63;;
1276;SDS011;631;51.024;13.826;2024-02-16T13:32:22;23.57;;;21.67;;
1276;SDS011;631;51.024;13.826;2024-02-16T13:34:47;21.60;;;19.93;;
1276;SDS011;631;51.024;13.826;2024-02-16T13:37:13;23.73;;;21.83;;
1276;SDS011;631;51.024;13.826;2024-02-16T13:39:39;22.70;;;21.00;;
1276;SDS011;631;51.024;13.826;2024-02-16T13:42:04;22.53;;;20.63;;
1276;SDS011;631;51.024;13.826;2024-02-16T13:44:30;22.93;;;21.13;;
1276;SDS011;631;51.024;13.826;2024-02-16T13:46:56;23.73;;;21.90;;
1276;SDS011;631;51.024;13.826;2024-02-16T13:49:22;23.30;;;21.50;;
1276;SDS011;631;51.024;13.826;2024-02-16T13:51:48;24.97;;;22.87;;
1276;SDS011;631;51.024;13.826;2024-02-16T13:54:14;24.53;;;22.43;;
1276;SDS011;631;51.024;13.826;2024-02-16T13:56:39;24.80;;;22.70;;
1276;SDS011;631;51.024;13.826;2024-02-16T13:59:05;23.67;;;21.57;;
1276;SDS011;631;51.024;13.826;2024-02-16T14:01:34;24.63;;;22.43;;
1276;SDS011;631;51.024;13.826;2024-02-16T14:04:00;25.70;;;23.30;;
1276;SDS011;631;51.024;13.826;2024-02-16T14:06:26;26.77;;;24.30;;
1276;SDS011;631;51.024;13.826;2024-02-16T14:08:51;25.27;;;23.03;;
1276;SDS011;631;51.024;13.826;2024-02-16T14:11:18;25.70;;;23.30;;
1276;SDS011;631;51.024;13.826;2024-02-16T14:13:44;26.90;;;24.17;;
1276;SDS011;631;51.024;13.826;2024-02-16T14:16:09;26.43;;;24.03;;
1276;SDS011;631;51.024;13.826;2024-02-16T14:18:36;27.13;;;24.50;;
1276;SDS011;631;51.024;13.826;2024-02-16T14:21:02;25.60;;;23.00;;
1276;SDS011;631;51.024;13.826;2024-02-16T14:23:31;24.80;;;22.50;;
1276;SDS011;631;51.024;13.826;2024-02-16T14:25:57;26.03;;;23.53;;
1276;SDS011;631;51.024;13.826;2024-02-16T14:28:23;25.63;;;23.00;;
1276;SDS011;631;51.024;13.826;2024-02-16T14:30:49;25.60;;;23.17;;
1276;SDS011;631;51.024;13.826;2024-02-16T14:33:16;26.67;;;24.17;;
1276;SDS011;631;51.024;13.826;2024-02-16T14:35:42;27.70;;;25.00;;
1276;SDS011;631;51.024;13.826;2024-02-16T14:38:08;28.67;;;25.77;;
1276;SDS011;631;51.024;13.826;2024-02-16T14:40:34;28.17;;;25.37;;
1276;SDS011;631;51.024;13.826;2024-02-16T14:43:01;27.27;;;24.37;;
1276;SDS011;631;51.024;13.826;2024-02-16T14:45:27;28.77;;;25.67;;
1276;SDS011;631;51.024;13.826;2024-02-16T14:47:52;28.93;;;25.93;;
1276;SDS011;631;51.024;13.826;2024-02-16T14:50:18;29.40;;;26.57;;
1276;SDS011;631;51.024;13.826;2024-02-16T14:52:44;28.87;;;25.77;;
1276;SDS011;631;51.024;13.826;2024-02-16T14:55:10;28.40;;;25.30;;